sensor_id;sensor_type;location;lat;lon;timestamp;temperature;humidity
16347;DHT22;8283;48.504;13.734;2024-01-16T00:01:15;3.60;74.60
16347;DHT22;8283;48.504;13.734;2024-01-16T00:03:38;3.60;74.60
16347;DHT22;8283;48.504;13.734;2024-01-16T00:05:58;3.60;74.60
16347;DHT22;8283;48.504;13.734;2024-01-16T00:08:17;3.60;74.60
16347;DHT22;8283;48.504;13.734;2024-01-16T00:10:37;3.60;74.70
16347;DHT22;8283;48.504;13.734;2024-01-16T00:12:56;3.60;74.70
16347;DHT22;8283;48.504;13.734;2024-01-16T00:15:15;3.50;74.60
16347;DHT22;8283;48.504;13.734;2024-01-16T00:17:35;3.50;74.70
16347;DHT22;8283;48.504;13.734;2024-01-16T00:19:54;3.50;74.60
16347;DHT22;8283;48.504;13.734;2024-01-16T00:22:14;3.50;74.70
16347;DHT22;8283;48.504;13.734;2024-01-16T00:24:33;3.50;74.70
16347;DHT22;8283;48.504;13.734;2024-01-16T00:26:53;3.50;74.60
16347;DHT22;8283;48.504;13.734;2024-01-16T00:29:12;3.50;74.70
16347;DHT22;8283;48.504;13.734;2024-01-16T00:31:32;3.50;74.70
16347;DHT22;8283;48.504;13.734;2024-01-16T00:33:51;4.10;75.00
16347;DHT22;8283;48.504;13.734;2024-01-16T00:36:10;3.40;74.60
16347;DHT22;8283;48.504;13.734;2024-01-16T00:38:33;3.40;74.60
16347;DHT22;8283;48.504;13.734;2024-01-16T00:40:52;3.40;74.60
16347;DHT22;8283;48.504;13.734;2024-01-16T00:43:11;3.40;74.60
16347;DHT22;8283;48.504;13.734;2024-01-16T00:45:32;3.40;74.70
16347;DHT22;8283;48.504;13.734;2024-01-16T00:47:51;2.90;74.30
16347;DHT22;8283;48.504;13.734;2024-01-16T00:50:10;2.90;74.40
16347;DHT22;8283;48.504;13.734;2024-01-16T00:52:29;3.30;74.60
16347;DHT22;8283;48.504;13.734;2024-01-16T00:54:48;3.30;74.70
16347;DHT22;8283;48.504;13.734;2024-01-16T00:57:08;3.30;74.60
16347;DHT22;8283;48.504;13.734;2024-01-16T00:59:27;3.30;74.70
16347;DHT22;8283;48.504;13.734;2024-01-16T01:01:46;3.30;74.60
16347;DHT22;8283;48.504;13.734;2024-01-16T01:04:05;3.30;74.60
16347;DHT22;8283;48.504;13.734;2024-01-16T01:06:25;3.30;74.60
16347;DHT22;8283;48.504;13.734;2024-01-16T01:08:44;3.30;74.60
16347;DHT22;8283;48.504;13.734;2024-01-16T01:11:03;3.30;74.60
16347;DHT22;8283;48.504;13.734;2024-01-16T01:13:23;3.30;74.60
16347;DHT22;8283;48.504;13.734;2024-01-16T01:15:44;3.30;74.70
16347;DHT22;8283;48.504;13.734;2024-01-16T01:18:03;3.30;74.60
16347;DHT22;8283;48.504;13.734;2024-01-16T01:20:22;3.80;74.80
16347;DHT22;8283;48.504;13.734;2024-01-16T01:22:44;3.30;73.90
16347;DHT22;8283;48.504;13.734;2024-01-16T01:25:03;3.30;74.30
16347;DHT22;8283;48.504;13.734;2024-01-16T01:27:23;3.30;74.20
16347;DHT22;8283;48.504;13.734;2024-01-16T01:29:42;3.30;74.30
16347;DHT22;8283;48.504;13.734;2024-01-16T01:32:02;3.20;74.30
16347;DHT22;8283;48.504;13.734;2024-01-16T01:34:21;3.30;74.40
16347;DHT22;8283;48.504;13.734;2024-01-16T01:36:41;3.30;74.40
16347;DHT22;8283;48.504;13.734;2024-01-16T01:39:00;3.20;74.30
16347;DHT22;8283;48.504;13.734;2024-01-16T01:41:19;3.20;74.20
16347;DHT22;8283;48.504;13.734;2024-01-16T01:43:38;3.20;74.10
16347;DHT22;8283;48.504;13.734;2024-01-16T01:46:16;3.30;74.20
16347;DHT22;8283;48.504;13.734;2024-01-16T01:48:37;3.30;74.20
16347;DHT22;8283;48.504;13.734;2024-01-16T01:50:58;3.30;74.20
16347;DHT22;8283;48.504;13.734;2024-01-16T01:53:18;3.30;74.20
16347;DHT22;8283;48.504;13.734;2024-01-16T01:55:39;3.30;74.20
16347;DHT22;8283;48.504;13.734;2024-01-16T01:57:58;3.30;74.20
16347;DHT22;8283;48.504;13.734;2024-01-16T02:00:18;3.30;73.90
16347;DHT22;8283;48.504;13.734;2024-01-16T02:02:39;3.30;73.90
16347;DHT22;8283;48.504;13.734;2024-01-16T02:04:59;3.30;74.20
16347;DHT22;8283;48.504;13.734;2024-01-16T02:07:19;3.20;74.00
16347;DHT22;8283;48.504;13.734;2024-01-16T02:09:38;3.20;74.00
16347;DHT22;8283;48.504;13.734;2024-01-16T02:11:58;3.20;74.00
16347;DHT22;8283;48.504;13.734;2024-01-16T02:14:17;3.20;74.00
16347;DHT22;8283;48.504;13.734;2024-01-16T02:16:38;3.20;73.80
16347;DHT22;8283;48.504;13.734;2024-01-16T02:18:58;3.30;74.00
16347;DHT22;8283;48.504;13.734;2024-01-16T02:21:21;3.20;73.80
16347;DHT22;8283;48.504;13.734;2024-01-16T02:23:41;3.20;73.90
16347;DHT22;8283;48.504;13.734;2024-01-16T02:26:01;3.20;73.90
16347;DHT22;8283;48.504;13.734;2024-01-16T02:28:21;3.20;73.90
16347;DHT22;8283;48.504;13.734;2024-01-16T02:30:42;3.30;73.80
16347;DHT22;8283;48.504;13.734;2024-01-16T02:33:01;3.30;73.60
16347;DHT22;8283;48.504;13.734;2024-01-16T02:35:22;3.20;73.70
16347;DHT22;8283;48.504;13.734;2024-01-16T02:37:42;3.30;73.10
16347;DHT22;8283;48.504;13.734;2024-01-16T02:40:02;3.30;73.60
16347;DHT22;8283;48.504;13.734;2024-01-16T02:42:25;3.30;74.30
16347;DHT22;8283;48.504;13.734;2024-01-16T02:44:46;3.20;73.60
16347;DHT22;8283;48.504;13.734;2024-01-16T02:47:05;3.30;73.70
16347;DHT22;8283;48.504;13.734;2024-01-16T02:49:26;3.20;73.60
16347;DHT22;8283;48.504;13.734;2024-01-16T02:51:45;3.20;73.30
16347;DHT22;8283;48.504;13.734;2024-01-16T02:54:06;3.20;72.00
16347;DHT22;8283;48.504;13.734;2024-01-16T02:56:26;3.20;73.00
16347;DHT22;8283;48.504;13.734;2024-01-16T02:58:46;3.30;73.40
16347;DHT22;8283;48.504;13.734;2024-01-16T03:01:05;3.30;73.40
16347;DHT22;8283;48.504;13.734;2024-01-16T03:03:26;3.30;73.40
16347;DHT22;8283;48.504;13.734;2024-01-16T03:05:49;3.20;72.70
16347;DHT22;8283;48.504;13.734;2024-01-16T03:08:09;3.30;73.00
16347;DHT22;8283;48.504;13.734;2024-01-16T03:10:28;3.20;73.10
16347;DHT22;8283;48.504;13.734;2024-01-16T03:12:47;3.30;73.30
16347;DHT22;8283;48.504;13.734;2024-01-16T03:15:07;3.30;73.40
16347;DHT22;8283;48.504;13.734;2024-01-16T03:17:26;3.30;73.40
16347;DHT22;8283;48.504;13.734;2024-01-16T03:19:45;3.30;73.40
16347;DHT22;8283;48.504;13.734;2024-01-16T03:22:05;3.30;73.00
16347;DHT22;8283;48.504;13.734;2024-01-16T03:24:24;3.30;73.10
16347;DHT22;8283;48.504;13.734;2024-01-16T03:26:45;3.30;73.00
16347;DHT22;8283;48.504;13.734;2024-01-16T03:29:05;3.30;73.00
16347;DHT22;8283;48.504;13.734;2024-01-16T03:31:25;3.40;73.10
16347;DHT22;8283;48.504;13.734;2024-01-16T03:33:44;3.40;73.10
16347;DHT22;8283;48.504;13.734;2024-01-16T03:36:04;3.40;73.00
16347;DHT22;8283;48.504;13.734;2024-01-16T03:38:23;3.40;73.10
16347;DHT22;8283;48.504;13.734;2024-01-16T03:40:43;3.40;73.10
16347;DHT22;8283;48.504;13.734;2024-01-16T03:43:03;3.40;73.10
16347;DHT22;8283;48.504;13.734;2024-01-16T03:45:24;3.40;73.20
16347;DHT22;8283;48.504;13.734;2024-01-16T03:47:44;3.40;73.20
16347;DHT22;8283;48.504;13.734;2024-01-16T03:50:05;3.40;73.20
16347;DHT22;8283;48.504;13.734;2024-01-16T03:52:25;3.40;73.10
16347;DHT22;8283;48.504;13.734;2024-01-16T03:54:45;3.40;73.10
16347;DHT22;8283;48.504;13.734;2024-01-16T03:57:04;3.40;73.10
16347;DHT22;8283;48.504;13.734;2024-01-16T03:59:24;3.40;72.90
16347;DHT22;8283;48.504;13.734;2024-01-16T04:01:43;3.40;73.00
16347;DHT22;8283;48.504;13.734;2024-01-16T04:04:04;3.40;73.00
16347;DHT22;8283;48.504;13.734;2024-01-16T04:06:27;3.40;73.00
16347;DHT22;8283;48.504;13.734;2024-01-16T04:08:48;3.40;72.70
16347;DHT22;8283;48.504;13.734;2024-01-16T04:11:12;3.40;72.80
16347;DHT22;8283;48.504;13.734;2024-01-16T04:13:31;3.40;72.80
16347;DHT22;8283;48.504;13.734;2024-01-16T04:15:50;3.40;72.70
16347;DHT22;8283;48.504;13.734;2024-01-16T04:18:10;3.40;72.80
16347;DHT22;8283;48.504;13.734;2024-01-16T04:20:29;3.40;72.90
16347;DHT22;8283;48.504;13.734;2024-01-16T04:22:49;3.40;72.90
16347;DHT22;8283;48.504;13.734;2024-01-16T04:25:09;3.40;72.60
16347;DHT22;8283;48.504;13.734;2024-01-16T04:27:28;3.40;72.40
16347;DHT22;8283;48.504;13.734;2024-01-16T04:29:47;3.40;72.70
16347;DHT22;8283;48.504;13.734;2024-01-16T04:32:07;3.40;72.90
16347;DHT22;8283;48.504;13.734;2024-01-16T04:34:26;3.40;72.70
16347;DHT22;8283;48.504;13.734;2024-01-16T04:36:46;3.40;72.60
16347;DHT22;8283;48.504;13.734;2024-01-16T04:39:07;3.40;72.60
16347;DHT22;8283;48.504;13.734;2024-01-16T04:41:27;3.40;72.60
16347;DHT22;8283;48.504;13.734;2024-01-16T04:43:47;3.40;72.60
16347;DHT22;8283;48.504;13.734;2024-01-16T04:46:08;3.40;72.40
16347;DHT22;8283;48.504;13.734;2024-01-16T04:48:27;3.40;71.40
16347;DHT22;8283;48.504;13.734;2024-01-16T04:50:47;3.40;72.30
16347;DHT22;8283;48.504;13.734;2024-01-16T04:53:07;3.30;72.20
16347;DHT22;8283;48.504;13.734;2024-01-16T04:55:27;3.30;72.20
16347;DHT22;8283;48.504;13.734;2024-01-16T04:57:47;3.30;72.40
16347;DHT22;8283;48.504;13.734;2024-01-16T05:00:06;3.30;72.40
16347;DHT22;8283;48.504;13.734;2024-01-16T05:02:26;3.30;72.40
16347;DHT22;8283;48.504;13.734;2024-01-16T05:04:45;3.30;72.20
16347;DHT22;8283;48.504;13.734;2024-01-16T05:07:08;3.30;72.20
16347;DHT22;8283;48.504;13.734;2024-01-16T05:09:28;3.30;72.50
16347;DHT22;8283;48.504;13.734;2024-01-16T05:11:47;3.20;72.20
16347;DHT22;8283;48.504;13.734;2024-01-16T05:14:07;3.30;72.50
16347;DHT22;8283;48.504;13.734;2024-01-16T05:16:27;3.20;72.20
16347;DHT22;8283;48.504;13.734;2024-01-16T05:18:46;3.20;72.30
16347;DHT22;8283;48.504;13.734;2024-01-16T05:21:05;3.20;72.40
16347;DHT22;8283;48.504;13.734;2024-01-16T05:23:26;3.20;72.20
16347;DHT22;8283;48.504;13.734;2024-01-16T05:25:46;3.20;72.00
16347;DHT22;8283;48.504;13.734;2024-01-16T05:28:06;3.20;72.30
16347;DHT22;8283;48.504;13.734;2024-01-16T05:30:25;3.20;72.20
16347;DHT22;8283;48.504;13.734;2024-01-16T05:32:45;3.10;72.10
16347;DHT22;8283;48.504;13.734;2024-01-16T05:35:30;3.10;72.30
16347;DHT22;8283;48.504;13.734;2024-01-16T05:37:49;3.10;72.00
16347;DHT22;8283;48.504;13.734;2024-01-16T05:40:09;3.10;72.40
16347;DHT22;8283;48.504;13.734;2024-01-16T05:42:29;3.10;72.50
16347;DHT22;8283;48.504;13.734;2024-01-16T05:44:49;3.10;71.90
16347;DHT22;8283;48.504;13.734;2024-01-16T05:47:08;3.20;72.30
16347;DHT22;8283;48.504;13.734;2024-01-16T05:49:27;3.20;72.40
16347;DHT22;8283;48.504;13.734;2024-01-16T05:51:47;3.20;72.40
16347;DHT22;8283;48.504;13.734;2024-01-16T05:54:07;3.20;72.30
16347;DHT22;8283;48.504;13.734;2024-01-16T05:56:26;3.40;72.50
16347;DHT22;8283;48.504;13.734;2024-01-16T05:58:45;3.20;72.40
16347;DHT22;8283;48.504;13.734;2024-01-16T06:01:05;3.20;72.40
16347;DHT22;8283;48.504;13.734;2024-01-16T06:03:24;3.20;72.40
16347;DHT22;8283;48.504;13.734;2024-01-16T06:05:44;3.20;72.50
16347;DHT22;8283;48.504;13.734;2024-01-16T06:08:03;3.20;72.30
16347;DHT22;8283;48.504;13.734;2024-01-16T06:10:23;3.30;73.10
16347;DHT22;8283;48.504;13.734;2024-01-16T06:12:43;3.30;72.40
16347;DHT22;8283;48.504;13.734;2024-01-16T06:15:02;3.30;72.30
16347;DHT22;8283;48.504;13.734;2024-01-16T06:17:21;3.30;72.20
16347;DHT22;8283;48.504;13.734;2024-01-16T06:19:40;3.30;72.10
16347;DHT22;8283;48.504;13.734;2024-01-16T06:22:00;3.30;72.20
16347;DHT22;8283;48.504;13.734;2024-01-16T06:24:19;3.30;72.30
16347;DHT22;8283;48.504;13.734;2024-01-16T06:26:38;3.30;71.90
16347;DHT22;8283;48.504;13.734;2024-01-16T06:28:58;3.30;72.10
16347;DHT22;8283;48.504;13.734;2024-01-16T06:31:17;3.30;72.20
16347;DHT22;8283;48.504;13.734;2024-01-16T06:33:37;3.30;72.30
16347;DHT22;8283;48.504;13.734;2024-01-16T06:35:56;3.30;72.10
16347;DHT22;8283;48.504;13.734;2024-01-16T06:38:16;3.30;71.80
16347;DHT22;8283;48.504;13.734;2024-01-16T06:40:35;3.30;72.00
16347;DHT22;8283;48.504;13.734;2024-01-16T06:42:55;3.30;72.10
16347;DHT22;8283;48.504;13.734;2024-01-16T06:45:14;3.30;72.20
16347;DHT22;8283;48.504;13.734;2024-01-16T06:47:34;3.30;72.00
16347;DHT22;8283;48.504;13.734;2024-01-16T06:49:54;3.30;71.90
16347;DHT22;8283;48.504;13.734;2024-01-16T06:52:13;3.30;71.90
16347;DHT22;8283;48.504;13.734;2024-01-16T06:54:33;3.30;72.00
16347;DHT22;8283;48.504;13.734;2024-01-16T06:56:52;3.30;72.10
16347;DHT22;8283;48.504;13.734;2024-01-16T06:59:11;3.30;72.20
16347;DHT22;8283;48.504;13.734;2024-01-16T07:01:31;3.30;72.10
16347;DHT22;8283;48.504;13.734;2024-01-16T07:03:50;3.30;71.90
16347;DHT22;8283;48.504;13.734;2024-01-16T07:06:11;3.30;71.50
16347;DHT22;8283;48.504;13.734;2024-01-16T07:08:31;3.30;71.00
16347;DHT22;8283;48.504;13.734;2024-01-16T07:10:50;3.20;72.40
16347;DHT22;8283;48.504;13.734;2024-01-16T07:13:09;3.20;71.80
16347;DHT22;8283;48.504;13.734;2024-01-16T07:15:29;3.20;71.80
16347;DHT22;8283;48.504;13.734;2024-01-16T07:17:49;3.20;71.80
16347;DHT22;8283;48.504;13.734;2024-01-16T07:20:09;3.20;71.90
16347;DHT22;8283;48.504;13.734;2024-01-16T07:22:28;3.20;72.00
16347;DHT22;8283;48.504;13.734;2024-01-16T07:24:48;3.20;71.80
16347;DHT22;8283;48.504;13.734;2024-01-16T07:27:07;3.20;71.80
16347;DHT22;8283;48.504;13.734;2024-01-16T07:29:27;3.20;71.90
16347;DHT22;8283;48.504;13.734;2024-01-16T07:31:46;3.20;71.90
16347;DHT22;8283;48.504;13.734;2024-01-16T07:34:05;3.20;72.00
16347;DHT22;8283;48.504;13.734;2024-01-16T07:36:25;3.20;72.00
16347;DHT22;8283;48.504;13.734;2024-01-16T07:38:45;3.20;72.10
16347;DHT22;8283;48.504;13.734;2024-01-16T07:41:05;3.20;72.10
16347;DHT22;8283;48.504;13.734;2024-01-16T07:43:24;3.20;72.10
16347;DHT22;8283;48.504;13.734;2024-01-16T07:45:44;3.20;72.20
16347;DHT22;8283;48.504;13.734;2024-01-16T07:48:03;3.20;72.30
16347;DHT22;8283;48.504;13.734;2024-01-16T07:50:23;3.20;72.30
16347;DHT22;8283;48.504;13.734;2024-01-16T07:52:42;3.20;72.30
16347;DHT22;8283;48.504;13.734;2024-01-16T07:55:01;3.20;72.30
16347;DHT22;8283;48.504;13.734;2024-01-16T07:57:22;3.30;72.40
16347;DHT22;8283;48.504;13.734;2024-01-16T07:59:42;3.20;72.30
16347;DHT22;8283;48.504;13.734;2024-01-16T08:02:01;3.30;72.60
16347;DHT22;8283;48.504;13.734;2024-01-16T08:04:22;3.30;72.60
16347;DHT22;8283;48.504;13.734;2024-01-16T08:06:42;3.30;72.60
16347;DHT22;8283;48.504;13.734;2024-01-16T08:09:01;3.30;72.60
16347;DHT22;8283;48.504;13.734;2024-01-16T08:11:21;3.40;72.60
16347;DHT22;8283;48.504;13.734;2024-01-16T08:13:40;3.40;72.50
16347;DHT22;8283;48.504;13.734;2024-01-16T08:16:00;3.50;72.60
16347;DHT22;8283;48.504;13.734;2024-01-16T08:18:19;3.50;72.40
16347;DHT22;8283;48.504;13.734;2024-01-16T08:20:38;3.50;72.30
16347;DHT22;8283;48.504;13.734;2024-01-16T08:22:59;3.50;72.20
16347;DHT22;8283;48.504;13.734;2024-01-16T08:25:18;3.60;72.30
16347;DHT22;8283;48.504;13.734;2024-01-16T08:27:37;3.60;72.20
16347;DHT22;8283;48.504;13.734;2024-01-16T08:29:57;3.70;72.30
16347;DHT22;8283;48.504;13.734;2024-01-16T08:32:16;3.70;72.10
16347;DHT22;8283;48.504;13.734;2024-01-16T08:34:36;3.70;72.20
16347;DHT22;8283;48.504;13.734;2024-01-16T08:36:56;3.70;72.20
16347;DHT22;8283;48.504;13.734;2024-01-16T08:39:16;3.70;71.70
16347;DHT22;8283;48.504;13.734;2024-01-16T08:41:36;3.70;71.90
16347;DHT22;8283;48.504;13.734;2024-01-16T08:43:55;3.70;71.70
16347;DHT22;8283;48.504;13.734;2024-01-16T08:46:15;3.70;71.70
16347;DHT22;8283;48.504;13.734;2024-01-16T08:48:34;3.70;71.80
16347;DHT22;8283;48.504;13.734;2024-01-16T08:50:53;3.70;71.90
16347;DHT22;8283;48.504;13.734;2024-01-16T08:53:13;4.40;72.30
16347;DHT22;8283;48.504;13.734;2024-01-16T08:55:32;3.80;71.90
16347;DHT22;8283;48.504;13.734;2024-01-16T08:57:51;3.80;72.00
16347;DHT22;8283;48.504;13.734;2024-01-16T09:00:10;3.90;71.80
16347;DHT22;8283;48.504;13.734;2024-01-16T09:02:31;3.90;71.80
16347;DHT22;8283;48.504;13.734;2024-01-16T09:04:50;4.00;71.90
16347;DHT22;8283;48.504;13.734;2024-01-16T09:07:10;4.00;71.90
16347;DHT22;8283;48.504;13.734;2024-01-16T09:09:29;4.10;71.90
16347;DHT22;8283;48.504;13.734;2024-01-16T09:11:49;4.10;71.40
16347;DHT22;8283;48.504;13.734;2024-01-16T09:14:09;4.10;71.60
16347;DHT22;8283;48.504;13.734;2024-01-16T09:16:28;4.20;71.80
16347;DHT22;8283;48.504;13.734;2024-01-16T09:18:47;4.20;71.80
16347;DHT22;8283;48.504;13.734;2024-01-16T09:21:07;4.30;71.40
16347;DHT22;8283;48.504;13.734;2024-01-16T09:23:26;4.30;71.60
16347;DHT22;8283;48.504;13.734;2024-01-16T09:25:45;4.20;71.70
16347;DHT22;8283;48.504;13.734;2024-01-16T09:28:04;4.40;71.90
16347;DHT22;8283;48.504;13.734;2024-01-16T09:30:24;4.40;71.80
16347;DHT22;8283;48.504;13.734;2024-01-16T09:32:44;4.50;71.60
16347;DHT22;8283;48.504;13.734;2024-01-16T09:35:04;4.50;71.50
16347;DHT22;8283;48.504;13.734;2024-01-16T09:37:26;4.60;71.30
16347;DHT22;8283;48.504;13.734;2024-01-16T09:39:45;4.60;71.40
16347;DHT22;8283;48.504;13.734;2024-01-16T09:42:05;4.70;71.30
16347;DHT22;8283;48.504;13.734;2024-01-16T09:44:24;4.70;71.30
16347;DHT22;8283;48.504;13.734;2024-01-16T09:46:44;4.80;71.50
16347;DHT22;8283;48.504;13.734;2024-01-16T09:49:06;4.80;71.20
16347;DHT22;8283;48.504;13.734;2024-01-16T09:51:26;4.80;71.00
16347;DHT22;8283;48.504;13.734;2024-01-16T09:53:45;4.80;70.60
16347;DHT22;8283;48.504;13.734;2024-01-16T09:56:08;4.80;70.20
16347;DHT22;8283;48.504;13.734;2024-01-16T09:58:33;4.80;69.30
16347;DHT22;8283;48.504;13.734;2024-01-16T10:00:53;4.80;70.10
16347;DHT22;8283;48.504;13.734;2024-01-16T10:03:13;4.80;70.40
16347;DHT22;8283;48.504;13.734;2024-01-16T10:05:33;4.80;70.40
16347;DHT22;8283;48.504;13.734;2024-01-16T10:07:53;4.80;70.60
16347;DHT22;8283;48.504;13.734;2024-01-16T10:10:13;4.90;70.80
16347;DHT22;8283;48.504;13.734;2024-01-16T10:12:33;4.90;70.90
16347;DHT22;8283;48.504;13.734;2024-01-16T10:14:54;4.90;70.90
16347;DHT22;8283;48.504;13.734;2024-01-16T10:17:14;5.00;71.00
16347;DHT22;8283;48.504;13.734;2024-01-16T10:19:34;5.00;69.70
16347;DHT22;8283;48.504;13.734;2024-01-16T10:22:01;5.00;70.90
16347;DHT22;8283;48.504;13.734;2024-01-16T10:24:21;5.10;70.50
16347;DHT22;8283;48.504;13.734;2024-01-16T10:26:41;5.80;71.30
16347;DHT22;8283;48.504;13.734;2024-01-16T10:29:03;5.20;70.90
16347;DHT22;8283;48.504;13.734;2024-01-16T10:31:29;5.20;70.70
16347;DHT22;8283;48.504;13.734;2024-01-16T10:33:49;5.20;70.60
16347;DHT22;8283;48.504;13.734;2024-01-16T10:36:15;5.30;70.80
16347;DHT22;8283;48.504;13.734;2024-01-16T10:38:36;5.30;70.80
16347;DHT22;8283;48.504;13.734;2024-01-16T10:41:06;5.30;70.80
16347;DHT22;8283;48.504;13.734;2024-01-16T10:43:25;5.40;70.10
16347;DHT22;8283;48.504;13.734;2024-01-16T10:45:45;5.40;70.60
16347;DHT22;8283;48.504;13.734;2024-01-16T10:48:08;5.40;70.60
16347;DHT22;8283;48.504;13.734;2024-01-16T10:50:27;5.50;70.30
16347;DHT22;8283;48.504;13.734;2024-01-16T10:52:47;5.50;70.40
16347;DHT22;8283;48.504;13.734;2024-01-16T10:55:08;5.60;70.40
16347;DHT22;8283;48.504;13.734;2024-01-16T10:57:33;5.60;70.40
16347;DHT22;8283;48.504;13.734;2024-01-16T11:00:04;5.60;70.20
16347;DHT22;8283;48.504;13.734;2024-01-16T11:02:33;5.60;69.80
16347;DHT22;8283;48.504;13.734;2024-01-16T11:04:55;5.70;69.50
16347;DHT22;8283;48.504;13.734;2024-01-16T11:07:16;5.70;70.00
16347;DHT22;8283;48.504;13.734;2024-01-16T11:09:36;5.70;69.50
16347;DHT22;8283;48.504;13.734;2024-01-16T11:11:57;5.70;69.20
16347;DHT22;8283;48.504;13.734;2024-01-16T11:14:17;5.70;69.70
16347;DHT22;8283;48.504;13.734;2024-01-16T11:16:38;5.70;69.60
16347;DHT22;8283;48.504;13.734;2024-01-16T11:18:58;5.70;69.50
16347;DHT22;8283;48.504;13.734;2024-01-16T11:21:18;5.70;69.60
16347;DHT22;8283;48.504;13.734;2024-01-16T11:23:37;5.70;69.80
16347;DHT22;8283;48.504;13.734;2024-01-16T11:25:57;5.70;69.80
16347;DHT22;8283;48.504;13.734;2024-01-16T11:28:16;5.70;69.80
16347;DHT22;8283;48.504;13.734;2024-01-16T11:30:38;5.70;69.90
16347;DHT22;8283;48.504;13.734;2024-01-16T11:32:58;5.80;69.90
16347;DHT22;8283;48.504;13.734;2024-01-16T11:35:34;5.80;69.90
16347;DHT22;8283;48.504;13.734;2024-01-16T11:38:04;5.90;69.00
16347;DHT22;8283;48.504;13.734;2024-01-16T11:40:24;5.90;69.40
16347;DHT22;8283;48.504;13.734;2024-01-16T11:42:44;6.00;70.00
16347;DHT22;8283;48.504;13.734;2024-01-16T11:45:04;6.00;70.00
16347;DHT22;8283;48.504;13.734;2024-01-16T11:47:25;6.10;70.00
16347;DHT22;8283;48.504;13.734;2024-01-16T11:49:46;6.10;69.80
16347;DHT22;8283;48.504;13.734;2024-01-16T11:52:06;6.10;69.70
16347;DHT22;8283;48.504;13.734;2024-01-16T11:54:26;6.20;69.70
16347;DHT22;8283;48.504;13.734;2024-01-16T12:02:09;6.30;69.80
16347;DHT22;8283;48.504;13.734;2024-01-16T12:04:29;6.30;69.30
16347;DHT22;8283;48.504;13.734;2024-01-16T12:06:58;6.30;69.30
16347;DHT22;8283;48.504;13.734;2024-01-16T12:09:18;6.30;68.50
16347;DHT22;8283;48.504;13.734;2024-01-16T12:11:37;6.30;69.20
16347;DHT22;8283;48.504;13.734;2024-01-16T12:14:02;6.20;68.90
16347;DHT22;8283;48.504;13.734;2024-01-16T12:16:22;6.20;68.40
16347;DHT22;8283;48.504;13.734;2024-01-16T12:18:42;6.20;69.00
16347;DHT22;8283;48.504;13.734;2024-01-16T12:21:11;6.20;69.10
16347;DHT22;8283;48.504;13.734;2024-01-16T12:23:30;6.20;68.60
16347;DHT22;8283;48.504;13.734;2024-01-16T12:25:52;6.20;69.10
16347;DHT22;8283;48.504;13.734;2024-01-16T12:28:13;6.20;68.80
16347;DHT22;8283;48.504;13.734;2024-01-16T12:30:37;6.20;69.00
16347;DHT22;8283;48.504;13.734;2024-01-16T12:33:09;6.20;68.90
16347;DHT22;8283;48.504;13.734;2024-01-16T12:35:29;6.30;68.40
16347;DHT22;8283;48.504;13.734;2024-01-16T12:38:00;6.30;69.00
16347;DHT22;8283;48.504;13.734;2024-01-16T12:40:20;6.30;68.00
16347;DHT22;8283;48.504;13.734;2024-01-16T12:42:39;6.30;68.90
16347;DHT22;8283;48.504;13.734;2024-01-16T12:44:59;5.50;68.30
16347;DHT22;8283;48.504;13.734;2024-01-16T12:47:18;6.30;68.80
16347;DHT22;8283;48.504;13.734;2024-01-16T12:49:41;6.30;68.70
16347;DHT22;8283;48.504;13.734;2024-01-16T12:54:39;6.30;68.00
16347;DHT22;8283;48.504;13.734;2024-01-16T12:56:59;6.30;68.80
16347;DHT22;8283;48.504;13.734;2024-01-16T12:59:18;6.30;68.70
16347;DHT22;8283;48.504;13.734;2024-01-16T13:01:43;6.30;68.60
16347;DHT22;8283;48.504;13.734;2024-01-16T13:04:03;6.30;68.50
16347;DHT22;8283;48.504;13.734;2024-01-16T13:06:23;6.20;68.60
16347;DHT22;8283;48.504;13.734;2024-01-16T13:08:42;6.20;68.60
16347;DHT22;8283;48.504;13.734;2024-01-16T13:13:22;6.20;68.50
16347;DHT22;8283;48.504;13.734;2024-01-16T13:15:42;6.20;68.60
16347;DHT22;8283;48.504;13.734;2024-01-16T13:18:03;6.20;68.60
16347;DHT22;8283;48.504;13.734;2024-01-16T13:20:22;6.10;68.40
16347;DHT22;8283;48.504;13.734;2024-01-16T13:22:41;6.10;68.50
16347;DHT22;8283;48.504;13.734;2024-01-16T13:25:01;6.10;68.30
16347;DHT22;8283;48.504;13.734;2024-01-16T13:27:21;6.10;68.30
16347;DHT22;8283;48.504;13.734;2024-01-16T13:29:40;6.00;68.30
16347;DHT22;8283;48.504;13.734;2024-01-16T13:32:01;6.00;68.30
16347;DHT22;8283;48.504;13.734;2024-01-16T13:34:20;6.40;68.50
16347;DHT22;8283;48.504;13.734;2024-01-16T13:36:40;6.00;68.40
16347;DHT22;8283;48.504;13.734;2024-01-16T13:39:01;6.10;68.40
16347;DHT22;8283;48.504;13.734;2024-01-16T13:41:21;6.10;68.30
16347;DHT22;8283;48.504;13.734;2024-01-16T13:43:40;6.00;68.20
16347;DHT22;8283;48.504;13.734;2024-01-16T13:46:00;6.10;68.40
16347;DHT22;8283;48.504;13.734;2024-01-16T13:48:19;6.10;68.40
16347;DHT22;8283;48.504;13.734;2024-01-16T13:50:38;6.10;68.50
16347;DHT22;8283;48.504;13.734;2024-01-16T13:52:57;6.10;68.40
16347;DHT22;8283;48.504;13.734;2024-01-16T13:55:18;6.10;68.50
16347;DHT22;8283;48.504;13.734;2024-01-16T13:57:37;6.10;68.30
16347;DHT22;8283;48.504;13.734;2024-01-16T13:59:57;6.10;68.30
16347;DHT22;8283;48.504;13.734;2024-01-16T14:02:17;6.10;68.40
16347;DHT22;8283;48.504;13.734;2024-01-16T14:04:36;6.10;68.40
16347;DHT22;8283;48.504;13.734;2024-01-16T14:06:56;6.10;68.30
16347;DHT22;8283;48.504;13.734;2024-01-16T14:09:15;6.10;68.40
16347;DHT22;8283;48.504;13.734;2024-01-16T14:11:35;6.10;68.50
16347;DHT22;8283;48.504;13.734;2024-01-16T14:13:54;6.10;68.60
16347;DHT22;8283;48.504;13.734;2024-01-16T14:16:14;6.10;68.70
16347;DHT22;8283;48.504;13.734;2024-01-16T14:18:33;6.10;68.60
16347;DHT22;8283;48.504;13.734;2024-01-16T14:20:52;6.20;68.50
16347;DHT22;8283;48.504;13.734;2024-01-16T14:23:11;6.10;68.30
16347;DHT22;8283;48.504;13.734;2024-01-16T14:25:32;6.10;68.20
16347;DHT22;8283;48.504;13.734;2024-01-16T14:28:02;6.20;68.20
16347;DHT22;8283;48.504;13.734;2024-01-16T14:30:27;6.20;67.40
16347;DHT22;8283;48.504;13.734;2024-01-16T14:32:46;6.10;68.00
16347;DHT22;8283;48.504;13.734;2024-01-16T14:35:06;6.10;68.00
16347;DHT22;8283;48.504;13.734;2024-01-16T14:37:26;6.10;68.00
16347;DHT22;8283;48.504;13.734;2024-01-16T14:39:46;6.10;68.00
16347;DHT22;8283;48.504;13.734;2024-01-16T14:42:06;6.10;68.10
16347;DHT22;8283;48.504;13.734;2024-01-16T14:44:26;6.10;68.10
16347;DHT22;8283;48.504;13.734;2024-01-16T14:46:45;5.60;67.80
16347;DHT22;8283;48.504;13.734;2024-01-16T14:49:05;6.10;68.10
16347;DHT22;8283;48.504;13.734;2024-01-16T14:51:25;6.10;68.00
16347;DHT22;8283;48.504;13.734;2024-01-16T14:53:45;6.00;68.00
16347;DHT22;8283;48.504;13.734;2024-01-16T14:56:05;5.40;67.50
16347;DHT22;8283;48.504;13.734;2024-01-16T14:58:24;5.90;67.80
16347;DHT22;8283;48.504;13.734;2024-01-16T15:00:43;5.90;67.90
16347;DHT22;8283;48.504;13.734;2024-01-16T15:03:04;5.80;68.00
16347;DHT22;8283;48.504;13.734;2024-01-16T15:05:24;5.80;67.90
16347;DHT22;8283;48.504;13.734;2024-01-16T15:07:44;5.70;68.00
16347;DHT22;8283;48.504;13.734;2024-01-16T15:10:05;5.60;67.90